This demonstration page uses our WeatherBlox Daily Observations layout. Learn more.

Left ArrowRight Arrow

Hourly Observations for August 25, 2015

Temp ( °F °C ) Dew Point ( °F °C ) Humidity (%) Winds ( mph kmh ) Pressure ( in mb ) Visibility ( mi km ) Precip ( " mm )
12:54 am 00:54 Clear 60 15.6 56 13.3 86 86 Calm 30.14 1021 10 16.0934 0 0
1:54 am 01:54 Clear 59 15 56 13.3 90 90 Calm 30.14 1021 10 16.0934 0 0
2:54 am 02:54 Clear 55 12.8 53 11.7 93 93 N 7 11 30.14 1021 10 16.0934 0 0
3:54 am 03:54 Clear 56 13.3 53 11.7 90 90 N 5 7 30.14 1021 10 16.0934 0 0
4:54 am 04:54 Clear 54 12.2 52 11.1 93 93 NNW 6 9 30.15 1021 10 16.0934 0 0
5:54 am 05:54 Clear 53 11.7 51 10.6 93 93 N 6 9 30.16 1021 10 16.0934 0 0
6:54 am 06:54 Sunny 51 10.6 50 10 96 96 N 6 9 30.18 1022 10 16.0934 0 0
7:54 am 07:54 Sunny 56 13.3 52 11.1 87 87 Calm 30.19 1022 10 16.0934 0 0
8:54 am 08:54 Sunny 62 16.7 56 13.3 80 80 ENE 3 6 30.2 1023 10 16.0934 0 0
9:54 am 09:54 Sunny 67 19.4 54 12.2 63 63 ESE 6 9 30.2 1023 10 16.0934 0 0
10:54 am 10:54 Sunny 70 21.1 52 11.1 53 53 ESE 7 11 30.2 1023 10 16.0934 0 0
11:54 am 11:54 Sunny 72 22.2 53 11.7 52 52 VRB 6 9 30.19 1022 10 16.0934 0 0
12:54 pm 12:54 Sunny 76 24.4 55 12.8 48 48 SE 7 11 30.17 1022 10 16.0934 0 0
1:54 pm 13:54 Sunny 77 25 55 12.8 47 47 Calm 30.15 1021 10 16.0934 0 0
2:54 pm 14:54 Sunny 79 26.1 56 13.3 45 45 Calm 30.14 1021 10 16.0934 0 0
3:54 pm 15:54 Sunny 81 27.2 57 13.9 44 44 undefined N/A 30.11 1020 10 16.0934 0 0
4:54 pm 16:54 Sunny 80 26.7 58 14.4 47 47 Calm 30.1 1019 10 16.0934 0 0
5:54 pm 17:54 Sunny 79 26.1 60 15.6 52 52 NE 9 15 30.1 1019 10 16.0934 0 0
6:54 pm 18:54 Sunny 77 25 61 16.1 58 58 ENE 7 11 30.1 1019 10 16.0934 0 0
7:54 pm 19:54 Sunny 73 22.8 61 16.1 66 66 ENE 6 9 30.09 1019 10 16.0934 0 0
8:54 pm 20:54 Clear 71 21.7 60 15.6 68 68 E 7 11 30.11 1020 10 16.0934 0 0
9:54 pm 21:54 Clear 70 21.1 59 15 68 68 ESE 3 6 30.12 1020 10 16.0934 0 0
10:54 pm 22:54 Clear 65 18.3 59 15 81 81 Calm 30.14 1021 10 16.0934 0 0
11:54 pm 23:54 Clear 62 16.7 59 15 90 90 NE 5 7 30.14 1021 10 16.0934 0 0

Powered by AerisWeather